sensor_id;sensor_type;location;lat;lon;timestamp;P1;durP1;ratioP1;P2;durP2;ratioP2
30458;SDS011;17254;50.976;7.034;2023-05-10T00:00:01;16.10;;;9.90;;
30458;SDS011;17254;50.976;7.034;2023-05-10T00:00:18;16.30;;;10.18;;
30458;SDS011;17254;50.976;7.034;2023-05-10T00:00:25;16.50;;;10.37;;
30458;SDS011;17254;50.976;7.034;2023-05-10T00:00:31;16.27;;;10.57;;
30458;SDS011;17254;50.976;7.034;2023-05-10T00:00:37;16.38;;;10.60;;
30458;SDS011;17254;50.976;7.034;2023-05-10T00:00:43;16.25;;;10.48;;
30458;SDS011;17254;50.976;7.034;2023-05-10T00:00:50;15.20;;;10.27;;
30458;SDS011;17254;50.976;7.034;2023-05-10T00:00:56;15.32;;;10.27;;
30458;SDS011;17254;50.976;7.034;2023-05-10T00:01:02;15.82;;;10.32;;
30458;SDS011;17254;50.976;7.034;2023-05-10T00:01:08;16.05;;;10.38;;
30458;SDS011;17254;50.976;7.034;2023-05-10T00:01:15;16.10;;;10.40;;
30458;SDS011;17254;50.976;7.034;2023-05-10T00:01:21;16.00;;;10.38;;
30458;SDS011;17254;50.976;7.034;2023-05-10T00:01:27;16.33;;;10.63;;
30458;SDS011;17254;50.976;7.034;2023-05-10T00:01:32;16.20;;;10.50;;
30458;SDS011;17254;50.976;7.034;2023-05-10T00:01:39;16.08;;;10.32;;
30458;SDS011;17254;50.976;7.034;2023-05-10T00:01:45;16.42;;;10.30;;
30458;SDS011;17254;50.976;7.034;2023-05-10T00:01:51;16.60;;;10.23;;
30458;SDS011;17254;50.976;7.034;2023-05-10T00:01:57;16.10;;;9.95;;
30458;SDS011;17254;50.976;7.034;2023-05-10T00:02:04;16.04;;;9.84;;
30458;SDS011;17254;50.976;7.034;2023-05-10T00:02:09;16.27;;;10.10;;
30458;SDS011;17254;50.976;7.034;2023-05-10T00:02:15;16.13;;;10.23;;
30458;SDS011;17254;50.976;7.034;2023-05-10T00:02:21;16.30;;;10.27;;
30458;SDS011;17254;50.976;7.034;2023-05-10T00:02:27;16.37;;;10.27;;
30458;SDS011;17254;50.976;7.034;2023-05-10T00:02:33;16.17;;;10.35;;
30458;SDS011;17254;50.976;7.034;2023-05-10T00:02:39;15.48;;;10.02;;
30458;SDS011;17254;50.976;7.034;2023-05-10T00:02:45;15.88;;;10.25;;
30458;SDS011;17254;50.976;7.034;2023-05-10T00:02:52;16.68;;;10.58;;
30458;SDS011;17254;50.976;7.034;2023-05-10T00:02:58;16.93;;;10.53;;
30458;SDS011;17254;50.976;7.034;2023-05-10T00:03:03;17.58;;;10.60;;
30458;SDS011;17254;50.976;7.034;2023-05-10T00:03:11;18.88;;;10.82;;
30458;SDS011;17254;50.976;7.034;2023-05-10T00:03:18;17.97;;;10.37;;
30458;SDS011;17254;50.976;7.034;2023-05-10T00:03:24;17.67;;;10.37;;
30458;SDS011;17254;50.976;7.034;2023-05-10T00:03:30;17.85;;;10.60;;
30458;SDS011;17254;50.976;7.034;2023-05-10T00:03:36;17.45;;;10.70;;
30458;SDS011;17254;50.976;7.034;2023-05-10T00:03:42;17.67;;;10.93;;
30458;SDS011;17254;50.976;7.034;2023-05-10T00:03:47;18.45;;;11.07;;
30458;SDS011;17254;50.976;7.034;2023-05-10T00:03:53;18.40;;;10.88;;
30458;SDS011;17254;50.976;7.034;2023-05-10T00:03:59;18.43;;;10.80;;
30458;SDS011;17254;50.976;7.034;2023-05-10T00:04:05;18.28;;;10.82;;
30458;SDS011;17254;50.976;7.034;2023-05-10T00:04:11;17.90;;;10.93;;
30458;SDS011;17254;50.976;7.034;2023-05-10T00:04:17;17.70;;;10.93;;
30458;SDS011;17254;50.976;7.034;2023-05-10T00:04:23;17.63;;;11.23;;
30458;SDS011;17254;50.976;7.034;2023-05-10T00:04:32;17.51;;;11.40;;
30458;SDS011;17254;50.976;7.034;2023-05-10T00:04:39;17.60;;;11.18;;
30458;SDS011;17254;50.976;7.034;2023-05-10T00:04:45;17.40;;;11.10;;
30458;SDS011;17254;50.976;7.034;2023-05-10T00:04:51;16.70;;;10.80;;
30458;SDS011;17254;50.976;7.034;2023-05-10T00:04:57;17.08;;;10.74;;
30458;SDS011;17254;50.976;7.034;2023-05-10T00:05:03;17.63;;;10.93;;
30458;SDS011;17254;50.976;7.034;2023-05-10T00:05:10;18.07;;;11.07;;
30458;SDS011;17254;50.976;7.034;2023-05-10T00:05:16;18.30;;;11.05;;
30458;SDS011;17254;50.976;7.034;2023-05-10T00:05:22;18.60;;;11.37;;
30458;SDS011;17254;50.976;7.034;2023-05-10T00:05:28;18.42;;;11.43;;
30458;SDS011;17254;50.976;7.034;2023-05-10T00:05:33;17.92;;;11.32;;
30458;SDS011;17254;50.976;7.034;2023-05-10T00:05:39;17.77;;;11.20;;
30458;SDS011;17254;50.976;7.034;2023-05-10T00:05:45;17.45;;;11.10;;
30458;SDS011;17254;50.976;7.034;2023-05-10T00:05:51;17.77;;;11.20;;
30458;SDS011;17254;50.976;7.034;2023-05-10T00:05:57;18.05;;;11.30;;
30458;SDS011;17254;50.976;7.034;2023-05-10T00:06:04;18.40;;;11.13;;
30458;SDS011;17254;50.976;7.034;2023-05-10T00:06:10;18.10;;;11.17;;
30458;SDS011;17254;50.976;7.034;2023-05-10T00:06:17;18.20;;;11.20;;
30458;SDS011;17254;50.976;7.034;2023-05-10T00:06:23;18.13;;;11.07;;
30458;SDS011;17254;50.976;7.034;2023-05-10T00:06:29;17.60;;;10.97;;
30458;SDS011;17254;50.976;7.034;2023-05-10T00:06:35;17.47;;;11.20;;
30458;SDS011;17254;50.976;7.034;2023-05-10T00:06:41;17.50;;;11.13;;
30458;SDS011;17254;50.976;7.034;2023-05-10T00:06:47;17.60;;;11.13;;
30458;SDS011;17254;50.976;7.034;2023-05-10T00:06:52;17.05;;;11.20;;
30458;SDS011;17254;50.976;7.034;2023-05-10T00:06:58;17.25;;;11.25;;
30458;SDS011;17254;50.976;7.034;2023-05-10T00:07:04;17.30;;;11.32;;
30458;SDS011;17254;50.976;7.034;2023-05-10T00:07:10;17.13;;;11.13;;
30458;SDS011;17254;50.976;7.034;2023-05-10T00:07:16;17.37;;;11.07;;
30458;SDS011;17254;50.976;7.034;2023-05-10T00:07:22;18.30;;;10.90;;
30458;SDS011;17254;50.976;7.034;2023-05-10T00:07:28;17.85;;;10.68;;
30458;SDS011;17254;50.976;7.034;2023-05-10T00:07:34;17.42;;;10.50;;
30458;SDS011;17254;50.976;7.034;2023-05-10T00:07:41;17.60;;;10.36;;
30458;SDS011;17254;50.976;7.034;2023-05-10T00:07:49;17.45;;;10.23;;
30458;SDS011;17254;50.976;7.034;2023-05-10T00:07:55;17.33;;;10.48;;
30458;SDS011;17254;50.976;7.034;2023-05-10T00:08:01;17.73;;;10.57;;
30458;SDS011;17254;50.976;7.034;2023-05-10T00:08:07;18.07;;;10.73;;
30458;SDS011;17254;50.976;7.034;2023-05-10T00:08:13;17.45;;;10.63;;
30458;SDS011;17254;50.976;7.034;2023-05-10T00:08:19;17.40;;;10.77;;
30458;SDS011;17254;50.976;7.034;2023-05-10T00:08:25;17.60;;;10.85;;
30458;SDS011;17254;50.976;7.034;2023-05-10T00:08:31;17.52;;;10.77;;
30458;SDS011;17254;50.976;7.034;2023-05-10T00:08:37;17.37;;;10.70;;
30458;SDS011;17254;50.976;7.034;2023-05-10T00:08:43;18.15;;;10.98;;
30458;SDS011;17254;50.976;7.034;2023-05-10T00:08:50;18.37;;;10.83;;
30458;SDS011;17254;50.976;7.034;2023-05-10T00:08:56;17.97;;;10.57;;
30458;SDS011;17254;50.976;7.034;2023-05-10T00:09:02;17.98;;;10.38;;
30458;SDS011;17254;50.976;7.034;2023-05-10T00:09:08;17.40;;;10.17;;
30458;SDS011;17254;50.976;7.034;2023-05-10T00:09:15;16.58;;;10.00;;
30458;SDS011;17254;50.976;7.034;2023-05-10T00:09:21;16.60;;;9.80;;
30458;SDS011;17254;50.976;7.034;2023-05-10T00:09:27;17.52;;;10.10;;
30458;SDS011;17254;50.976;7.034;2023-05-10T00:09:33;17.57;;;10.07;;
30458;SDS011;17254;50.976;7.034;2023-05-10T00:09:39;18.50;;;10.38;;
30458;SDS011;17254;50.976;7.034;2023-05-10T00:09:45;18.70;;;10.38;;
30458;SDS011;17254;50.976;7.034;2023-05-10T00:09:51;18.70;;;10.85;;
30458;SDS011;17254;50.976;7.034;2023-05-10T00:09:57;18.25;;;10.82;;
30458;SDS011;17254;50.976;7.034;2023-05-10T00:10:03;17.67;;;11.07;;
30458;SDS011;17254;50.976;7.034;2023-05-10T00:10:09;17.00;;;10.95;;
30458;SDS011;17254;50.976;7.034;2023-05-10T00:10:16;16.76;;;10.94;;
30458;SDS011;17254;50.976;7.034;2023-05-10T00:10:22;16.35;;;10.68;;
30458;SDS011;17254;50.976;7.034;2023-05-10T00:10:29;16.20;;;10.60;;
30458;SDS011;17254;50.976;7.034;2023-05-10T00:10:35;16.87;;;10.80;;
30458;SDS011;17254;50.976;7.034;2023-05-10T00:10:42;17.70;;;11.08;;
30458;SDS011;17254;50.976;7.034;2023-05-10T00:10:48;18.00;;;11.20;;
30458;SDS011;17254;50.976;7.034;2023-05-10T00:10:54;18.58;;;11.50;;
30458;SDS011;17254;50.976;7.034;2023-05-10T00:11:00;18.80;;;11.65;;
30458;SDS011;17254;50.976;7.034;2023-05-10T00:11:06;18.55;;;11.48;;
30458;SDS011;17254;50.976;7.034;2023-05-10T00:11:12;18.13;;;11.38;;
30458;SDS011;17254;50.976;7.034;2023-05-10T00:11:18;17.65;;;11.10;;
30458;SDS011;17254;50.976;7.034;2023-05-10T00:11:24;17.10;;;10.93;;
30458;SDS011;17254;50.976;7.034;2023-05-10T00:11:29;16.70;;;10.80;;
30458;SDS011;17254;50.976;7.034;2023-05-10T00:11:35;17.00;;;10.97;;
30458;SDS011;17254;50.976;7.034;2023-05-10T00:11:42;17.40;;;11.27;;
30458;SDS011;17254;50.976;7.034;2023-05-10T00:11:48;17.70;;;11.32;;
30458;SDS011;17254;50.976;7.034;2023-05-10T00:11:54;17.77;;;11.10;;
30458;SDS011;17254;50.976;7.034;2023-05-10T00:12:00;18.13;;;11.05;;
30458;SDS011;17254;50.976;7.034;2023-05-10T00:12:06;17.73;;;10.75;;
30458;SDS011;17254;50.976;7.034;2023-05-10T00:12:12;17.33;;;10.70;;
30458;SDS011;17254;50.976;7.034;2023-05-10T00:12:18;16.97;;;10.63;;
30458;SDS011;17254;50.976;7.034;2023-05-10T00:12:23;17.65;;;11.07;;
30458;SDS011;17254;50.976;7.034;2023-05-10T00:12:29;17.15;;;11.35;;
30458;SDS011;17254;50.976;7.034;2023-05-10T00:12:35;17.73;;;11.70;;
30458;SDS011;17254;50.976;7.034;2023-05-10T00:12:41;17.98;;;11.55;;
30458;SDS011;17254;50.976;7.034;2023-05-10T00:12:47;18.23;;;11.40;;
30458;SDS011;17254;50.976;7.034;2023-05-10T00:12:53;19.03;;;11.37;;
30458;SDS011;17254;50.976;7.034;2023-05-10T00:12:59;18.85;;;10.95;;
30458;SDS011;17254;50.976;7.034;2023-05-10T00:13:05;18.00;;;10.53;;
30458;SDS011;17254;50.976;7.034;2023-05-10T00:13:11;17.67;;;10.48;;
30458;SDS011;17254;50.976;7.034;2023-05-10T00:13:18;18.03;;;10.70;;
30458;SDS011;17254;50.976;7.034;2023-05-10T00:13:24;16.75;;;10.55;;
30458;SDS011;17254;50.976;7.034;2023-05-10T00:13:30;17.00;;;10.85;;
30458;SDS011;17254;50.976;7.034;2023-05-10T00:13:36;17.67;;;10.95;;
30458;SDS011;17254;50.976;7.034;2023-05-10T00:13:42;17.58;;;10.80;;
30458;SDS011;17254;50.976;7.034;2023-05-10T00:13:48;17.15;;;10.80;;
30458;SDS011;17254;50.976;7.034;2023-05-10T00:13:54;17.58;;;11.07;;
30458;SDS011;17254;50.976;7.034;2023-05-10T00:14:00;17.43;;;11.03;;
30458;SDS011;17254;50.976;7.034;2023-05-10T00:14:06;16.58;;;10.90;;
30458;SDS011;17254;50.976;7.034;2023-05-10T00:14:12;16.08;;;10.70;;
30458;SDS011;17254;50.976;7.034;2023-05-10T00:14:18;16.13;;;10.70;;
30458;SDS011;17254;50.976;7.034;2023-05-10T00:14:24;16.23;;;10.55;;
30458;SDS011;17254;50.976;7.034;2023-05-10T00:14:29;16.30;;;10.35;;
30458;SDS011;17254;50.976;7.034;2023-05-10T00:14:35;17.17;;;10.50;;
30458;SDS011;17254;50.976;7.034;2023-05-10T00:14:41;18.23;;;10.95;;
30458;SDS011;17254;50.976;7.034;2023-05-10T00:14:47;18.85;;;11.38;;
30458;SDS011;17254;50.976;7.034;2023-05-10T00:14:53;18.53;;;11.47;;
30458;SDS011;17254;50.976;7.034;2023-05-10T00:15:00;18.92;;;11.72;;
30458;SDS011;17254;50.976;7.034;2023-05-10T00:15:06;19.70;;;12.23;;
30458;SDS011;17254;50.976;7.034;2023-05-10T00:15:13;19.66;;;11.96;;
30458;SDS011;17254;50.976;7.034;2023-05-10T00:15:19;19.13;;;11.65;;
30458;SDS011;17254;50.976;7.034;2023-05-10T00:15:25;19.08;;;11.55;;
30458;SDS011;17254;50.976;7.034;2023-05-10T00:15:31;18.60;;;11.30;;
30458;SDS011;17254;50.976;7.034;2023-05-10T00:15:37;18.77;;;11.30;;
30458;SDS011;17254;50.976;7.034;2023-05-10T00:15:43;19.38;;;11.40;;
30458;SDS011;17254;50.976;7.034;2023-05-10T00:15:49;19.75;;;11.35;;
30458;SDS011;17254;50.976;7.034;2023-05-10T00:15:55;20.93;;;11.40;;
30458;SDS011;17254;50.976;7.034;2023-05-10T00:16:01;20.98;;;11.45;;
30458;SDS011;17254;50.976;7.034;2023-05-10T00:16:07;20.90;;;11.60;;
30458;SDS011;17254;50.976;7.034;2023-05-10T00:16:14;20.26;;;11.54;;
30458;SDS011;17254;50.976;7.034;2023-05-10T00:16:20;20.33;;;11.60;;
30458;SDS011;17254;50.976;7.034;2023-05-10T00:16:26;19.98;;;11.65;;
30458;SDS011;17254;50.976;7.034;2023-05-10T00:16:32;20.08;;;11.75;;
30458;SDS011;17254;50.976;7.034;2023-05-10T00:16:38;20.10;;;11.77;;
30458;SDS011;17254;50.976;7.034;2023-05-10T00:16:44;20.73;;;12.07;;
30458;SDS011;17254;50.976;7.034;2023-05-10T00:16:50;20.80;;;12.23;;
30458;SDS011;17254;50.976;7.034;2023-05-10T00:16:56;20.65;;;12.13;;
30458;SDS011;17254;50.976;7.034;2023-05-10T00:17:02;20.98;;;12.23;;
30458;SDS011;17254;50.976;7.034;2023-05-10T00:17:07;21.20;;;12.07;;
30458;SDS011;17254;50.976;7.034;2023-05-10T00:17:13;21.17;;;12.05;;
30458;SDS011;17254;50.976;7.034;2023-05-10T00:17:19;20.53;;;11.93;;
30458;SDS011;17254;50.976;7.034;2023-05-10T00:17:25;21.30;;;12.30;;
30458;SDS011;17254;50.976;7.034;2023-05-10T00:17:31;20.85;;;12.20;;
30458;SDS011;17254;50.976;7.034;2023-05-10T00:17:37;20.10;;;11.90;;
30458;SDS011;17254;50.976;7.034;2023-05-10T00:17:43;18.75;;;11.48;;
30458;SDS011;17254;50.976;7.034;2023-05-10T00:17:50;18.76;;;11.46;;
30458;SDS011;17254;50.976;7.034;2023-05-10T00:17:56;18.23;;;11.20;;
30458;SDS011;17254;50.976;7.034;2023-05-10T00:18:02;18.33;;;11.10;;
30458;SDS011;17254;50.976;7.034;2023-05-10T00:18:08;18.30;;;11.43;;
30458;SDS011;17254;50.976;7.034;2023-05-10T00:18:15;19.70;;;11.90;;
30458;SDS011;17254;50.976;7.034;2023-05-10T00:18:21;20.07;;;12.13;;
30458;SDS011;17254;50.976;7.034;2023-05-10T00:18:27;19.63;;;12.07;;
30458;SDS011;17254;50.976;7.034;2023-05-10T00:18:33;20.70;;;12.25;;
30458;SDS011;17254;50.976;7.034;2023-05-10T00:18:39;21.15;;;12.10;;
30458;SDS011;17254;50.976;7.034;2023-05-10T00:18:45;21.33;;;12.10;;
30458;SDS011;17254;50.976;7.034;2023-05-10T00:18:51;21.95;;;12.32;;
30458;SDS011;17254;50.976;7.034;2023-05-10T00:18:57;22.10;;;12.43;;
30458;SDS011;17254;50.976;7.034;2023-05-10T00:19:02;21.13;;;12.27;;
30458;SDS011;17254;50.976;7.034;2023-05-10T00:19:08;20.50;;;12.30;;
30458;SDS011;17254;50.976;7.034;2023-05-10T00:19:15;19.90;;;12.30;;
30458;SDS011;17254;50.976;7.034;2023-05-10T00:19:21;20.13;;;12.13;;
30458;SDS011;17254;50.976;7.034;2023-05-10T00:19:27;19.90;;;12.00;;
30458;SDS011;17254;50.976;7.034;2023-05-10T00:19:33;20.33;;;12.00;;
30458;SDS011;17254;50.976;7.034;2023-05-10T00:19:39;20.45;;;11.85;;
30458;SDS011;17254;50.976;7.034;2023-05-10T00:19:44;20.57;;;11.73;;
30458;SDS011;17254;50.976;7.034;2023-05-10T00:19:50;19.65;;;11.27;;
30458;SDS011;17254;50.976;7.034;2023-05-10T00:19:56;19.17;;;11.00;;
30458;SDS011;17254;50.976;7.034;2023-05-10T00:20:02;19.50;;;10.97;;
30458;SDS011;17254;50.976;7.034;2023-05-10T00:20:10;19.80;;;11.37;;
30458;SDS011;17254;50.976;7.034;2023-05-10T00:20:16;19.30;;;11.47;;
30458;SDS011;17254;50.976;7.034;2023-05-10T00:20:25;19.00;;;11.48;;
30458;SDS011;17254;50.976;7.034;2023-05-10T00:20:32;18.79;;;11.50;;
30458;SDS011;17254;50.976;7.034;2023-05-10T00:20:38;17.40;;;11.07;;
30458;SDS011;17254;50.976;7.034;2023-05-10T00:20:44;17.90;;;11.07;;
30458;SDS011;17254;50.976;7.034;2023-05-10T00:20:51;18.56;;;11.26;;
30458;SDS011;17254;50.976;7.034;2023-05-10T00:20:56;18.58;;;11.27;;
30458;SDS011;17254;50.976;7.034;2023-05-10T00:21:03;18.25;;;11.30;;
30458;SDS011;17254;50.976;7.034;2023-05-10T00:21:09;17.98;;;11.30;;
30458;SDS011;17254;50.976;7.034;2023-05-10T00:21:15;17.73;;;11.45;;
30458;SDS011;17254;50.976;7.034;2023-05-10T00:21:21;17.10;;;11.27;;
30458;SDS011;17254;50.976;7.034;2023-05-10T00:21:26;17.63;;;11.33;;
30458;SDS011;17254;50.976;7.034;2023-05-10T00:21:33;18.22;;;11.66;;
30458;SDS011;17254;50.976;7.034;2023-05-10T00:21:39;18.70;;;11.68;;
30458;SDS011;17254;50.976;7.034;2023-05-10T00:21:45;19.23;;;11.68;;
30458;SDS011;17254;50.976;7.034;2023-05-10T00:21:51;19.48;;;11.85;;
30458;SDS011;17254;50.976;7.034;2023-05-10T00:21:58;20.38;;;12.25;;
30458;SDS011;17254;50.976;7.034;2023-05-10T00:22:03;20.10;;;12.15;;
30458;SDS011;17254;50.976;7.034;2023-05-10T00:22:09;20.02;;;12.32;;
30458;SDS011;17254;50.976;7.034;2023-05-10T00:22:15;19.35;;;12.18;;
30458;SDS011;17254;50.976;7.034;2023-05-10T00:22:21;19.90;;;12.30;;
30458;SDS011;17254;50.976;7.034;2023-05-10T00:22:27;19.23;;;12.20;;
30458;SDS011;17254;50.976;7.034;2023-05-10T00:22:33;19.48;;;12.02;;
30458;SDS011;17254;50.976;7.034;2023-05-10T00:22:39;19.47;;;11.93;;
30458;SDS011;17254;50.976;7.034;2023-05-10T00:22:45;19.92;;;12.27;;
30458;SDS011;17254;50.976;7.034;2023-05-10T00:22:51;19.65;;;12.07;;
30458;SDS011;17254;50.976;7.034;2023-05-10T00:22:57;19.58;;;11.68;;
30458;SDS011;17254;50.976;7.034;2023-05-10T00:23:03;19.85;;;11.90;;
30458;SDS011;17254;50.976;7.034;2023-05-10T00:23:13;20.29;;;12.15;;
30458;SDS011;17254;50.976;7.034;2023-05-10T00:23:19;20.40;;;12.13;;
30458;SDS011;17254;50.976;7.034;2023-05-10T00:23:25;19.92;;;12.50;;
30458;SDS011;17254;50.976;7.034;2023-05-10T00:23:31;19.13;;;12.27;;
30458;SDS011;17254;50.976;7.034;2023-05-10T00:23:37;18.65;;;12.10;;
30458;SDS011;17254;50.976;7.034;2023-05-10T00:23:43;18.95;;;12.10;;
30458;SDS011;17254;50.976;7.034;2023-05-10T00:23:49;18.90;;;12.10;;
30458;SDS011;17254;50.976;7.034;2023-05-10T00:23:55;19.00;;;11.97;;
30458;SDS011;17254;50.976;7.034;2023-05-10T00:24:00;19.80;;;12.30;;
30458;SDS011;17254;50.976;7.034;2023-05-10T00:24:06;20.45;;;12.68;;
30458;SDS011;17254;50.976;7.034;2023-05-10T00:24:12;19.88;;;12.27;;
30458;SDS011;17254;50.976;7.034;2023-05-10T00:24:18;19.42;;;12.18;;
30458;SDS011;17254;50.976;7.034;2023-05-10T00:24:25;18.70;;;11.90;;
30458;SDS011;17254;50.976;7.034;2023-05-10T00:24:31;17.80;;;11.68;;
30458;SDS011;17254;50.976;7.034;2023-05-10T00:24:37;17.23;;;11.30;;
30458;SDS011;17254;50.976;7.034;2023-05-10T00:24:43;17.52;;;11.30;;
30458;SDS011;17254;50.976;7.034;2023-05-10T00:24:49;17.60;;;11.20;;
30458;SDS011;17254;50.976;7.034;2023-05-10T00:24:54;18.20;;;11.23;;
30458;SDS011;17254;50.976;7.034;2023-05-10T00:25:00;18.95;;;11.30;;
30458;SDS011;17254;50.976;7.034;2023-05-10T00:25:07;19.60;;;11.52;;
30458;SDS011;17254;50.976;7.034;2023-05-10T00:25:14;19.23;;;11.63;;
30458;SDS011;17254;50.976;7.034;2023-05-10T00:25:20;19.20;;;11.68;;
30458;SDS011;17254;50.976;7.034;2023-05-10T00:25:26;19.13;;;11.75;;
30458;SDS011;17254;50.976;7.034;2023-05-10T00:25:32;18.73;;;11.55;;
30458;SDS011;17254;50.976;7.034;2023-05-10T00:25:38;18.83;;;11.52;;
30458;SDS011;17254;50.976;7.034;2023-05-10T00:25:44;19.10;;;11.53;;
30458;SDS011;17254;50.976;7.034;2023-05-10T00:25:50;18.90;;;11.70;;
30458;SDS011;17254;50.976;7.034;2023-05-10T00:25:56;18.63;;;11.55;;
30458;SDS011;17254;50.976;7.034;2023-05-10T00:26:02;18.88;;;11.88;;
30458;SDS011;17254;50.976;7.034;2023-05-10T00:26:08;18.52;;;11.90;;
30458;SDS011;17254;50.976;7.034;2023-05-10T00:26:16;17.83;;;11.60;;
30458;SDS011;17254;50.976;7.034;2023-05-10T00:26:25;18.57;;;11.51;;
30458;SDS011;17254;50.976;7.034;2023-05-10T00:26:33;17.90;;;11.24;;
30458;SDS011;17254;50.976;7.034;2023-05-10T00:26:39;18.17;;;11.25;;
30458;SDS011;17254;50.976;7.034;2023-05-10T00:26:47;18.87;;;11.30;;
30458;SDS011;17254;50.976;7.034;2023-05-10T00:26:53;18.38;;;11.40;;
30458;SDS011;17254;50.976;7.034;2023-05-10T00:26:59;18.73;;;11.60;;
30458;SDS011;17254;50.976;7.034;2023-05-10T00:27:05;19.02;;;11.70;;
30458;SDS011;17254;50.976;7.034;2023-05-10T00:27:11;18.95;;;12.02;;
30458;SDS011;17254;50.976;7.034;2023-05-10T00:27:17;18.80;;;12.38;;
30458;SDS011;17254;50.976;7.034;2023-05-10T00:27:23;18.63;;;12.40;;
30458;SDS011;17254;50.976;7.034;2023-05-10T00:27:30;19.10;;;12.30;;
30458;SDS011;17254;50.976;7.034;2023-05-10T00:27:36;18.83;;;11.90;;
30458;SDS011;17254;50.976;7.034;2023-05-10T00:27:42;18.30;;;11.27;;
30458;SDS011;17254;50.976;7.034;2023-05-10T00:27:47;18.50;;;11.13;;
30458;SDS011;17254;50.976;7.034;2023-05-10T00:27:54;18.86;;;11.20;;
30458;SDS011;17254;50.976;7.034;2023-05-10T00:28:02;18.32;;;11.12;;
30458;SDS011;17254;50.976;7.034;2023-05-10T00:28:08;18.20;;;11.13;;
30458;SDS011;17254;50.976;7.034;2023-05-10T00:28:15;19.23;;;11.40;;
30458;SDS011;17254;50.976;7.034;2023-05-10T00:28:21;18.98;;;11.52;;
30458;SDS011;17254;50.976;7.034;2023-05-10T00:28:28;18.30;;;11.52;;
30458;SDS011;17254;50.976;7.034;2023-05-10T00:28:35;19.48;;;11.96;;
30458;SDS011;17254;50.976;7.034;2023-05-10T00:28:41;20.07;;;12.07;;
30458;SDS011;17254;50.976;7.034;2023-05-10T00:28:48;19.90;;;12.14;;
30458;SDS011;17254;50.976;7.034;2023-05-10T00:28:54;20.65;;;11.88;;
30458;SDS011;17254;50.976;7.034;2023-05-10T00:29:00;21.13;;;11.63;;
30458;SDS011;17254;50.976;7.034;2023-05-10T00:29:06;20.20;;;11.25;;
30458;SDS011;17254;50.976;7.034;2023-05-10T00:29:12;19.83;;;11.15;;
30458;SDS011;17254;50.976;7.034;2023-05-10T00:29:18;19.50;;;11.07;;
30458;SDS011;17254;50.976;7.034;2023-05-10T00:29:24;18.52;;;11.10;;
30458;SDS011;17254;50.976;7.034;2023-05-10T00:29:30;17.90;;;11.10;;
30458;SDS011;17254;50.976;7.034;2023-05-10T00:29:36;17.70;;;11.00;;
30458;SDS011;17254;50.976;7.034;2023-05-10T00:29:42;16.95;;;10.65;;
30458;SDS011;17254;50.976;7.034;2023-05-10T00:29:48;17.40;;;10.80;;
30458;SDS011;17254;50.976;7.034;2023-05-10T00:29:54;18.25;;;11.18;;
30458;SDS011;17254;50.976;7.034;2023-05-10T00:30:00;18.38;;;11.27;;
30458;SDS011;17254;50.976;7.034;2023-05-10T00:30:08;18.94;;;11.64;;
30458;SDS011;17254;50.976;7.034;2023-05-10T00:30:14;19.40;;;12.10;;
30458;SDS011;17254;50.976;7.034;2023-05-10T00:30:21;19.16;;;11.60;;
30458;SDS011;17254;50.976;7.034;2023-05-10T00:30:27;19.23;;;11.38;;
30458;SDS011;17254;50.976;7.034;2023-05-10T00:30:33;19.48;;;11.46;;
30458;SDS011;17254;50.976;7.034;2023-05-10T00:30:40;19.73;;;11.57;;
30458;SDS011;17254;50.976;7.034;2023-05-10T00:30:46;20.35;;;11.80;;
30458;SDS011;17254;50.976;7.034;2023-05-10T00:30:52;20.33;;;11.90;;
30458;SDS011;17254;50.976;7.034;2023-05-10T00:30:58;20.52;;;12.02;;
30458;SDS011;17254;50.976;7.034;2023-05-10T00:31:04;20.73;;;12.10;;
30458;SDS011;17254;50.976;7.034;2023-05-10T00:31:10;20.53;;;12.00;;
30458;SDS011;17254;50.976;7.034;2023-05-10T00:31:16;20.35;;;11.95;;
30458;SDS011;17254;50.976;7.034;2023-05-10T00:31:21;20.00;;;11.93;;
30458;SDS011;17254;50.976;7.034;2023-05-10T00:31:29;19.23;;;12.02;;
30458;SDS011;17254;50.976;7.034;2023-05-10T00:31:36;18.68;;;11.68;;
30458;SDS011;17254;50.976;7.034;2023-05-10T00:31:42;18.57;;;11.53;;
30458;SDS011;17254;50.976;7.034;2023-05-10T00:31:48;18.50;;;11.47;;
30458;SDS011;17254;50.976;7.034;2023-05-10T00:31:54;18.83;;;11.45;;
30458;SDS011;17254;50.976;7.034;2023-05-10T00:32:00;19.30;;;11.50;;
30458;SDS011;17254;50.976;7.034;2023-05-10T00:32:06;19.17;;;11.75;;
30458;SDS011;17254;50.976;7.034;2023-05-10T00:32:12;19.38;;;12.02;;
30458;SDS011;17254;50.976;7.034;2023-05-10T00:32:18;19.86;;;12.16;;
30458;SDS011;17254;50.976;7.034;2023-05-10T00:32:25;20.23;;;12.35;;
30458;SDS011;17254;50.976;7.034;2023-05-10T00:32:31;20.52;;;12.63;;
30458;SDS011;17254;50.976;7.034;2023-05-10T00:32:37;20.90;;;12.65;;
30458;SDS011;17254;50.976;7.034;2023-05-10T00:32:43;21.30;;;12.55;;
30458;SDS011;17254;50.976;7.034;2023-05-10T00:32:49;21.48;;;12.55;;
30458;SDS011;17254;50.976;7.034;2023-05-10T00:32:56;21.56;;;12.42;;
30458;SDS011;17254;50.976;7.034;2023-05-10T00:33:02;22.27;;;12.55;;
30458;SDS011;17254;50.976;7.034;2023-05-10T00:33:08;22.55;;;12.43;;
30458;SDS011;17254;50.976;7.034;2023-05-10T00:33:16;22.20;;;12.27;;
30458;SDS011;17254;50.976;7.034;2023-05-10T00:33:21;22.42;;;12.34;;
30458;SDS011;17254;50.976;7.034;2023-05-10T00:33:27;22.65;;;12.40;;
30458;SDS011;17254;50.976;7.034;2023-05-10T00:33:33;22.17;;;12.30;;
30458;SDS011;17254;50.976;7.034;2023-05-10T00:33:39;22.30;;;12.55;;
30458;SDS011;17254;50.976;7.034;2023-05-10T00:33:45;22.30;;;12.63;;
30458;SDS011;17254;50.976;7.034;2023-05-10T00:33:51;22.47;;;12.57;;
30458;SDS011;17254;50.976;7.034;2023-05-10T00:33:57;21.27;;;12.45;;
30458;SDS011;17254;50.976;7.034;2023-05-10T00:34:03;20.33;;;12.23;;
30458;SDS011;17254;50.976;7.034;2023-05-10T00:34:10;19.98;;;12.20;;
30458;SDS011;17254;50.976;7.034;2023-05-10T00:34:16;20.23;;;12.33;;
30458;SDS011;17254;50.976;7.034;2023-05-10T00:34:21;20.35;;;12.45;;
30458;SDS011;17254;50.976;7.034;2023-05-10T00:34:27;21.10;;;12.67;;
30458;SDS011;17254;50.976;7.034;2023-05-10T00:34:33;21.90;;;13.02;;
30458;SDS011;17254;50.976;7.034;2023-05-10T00:34:39;21.80;;;12.95;;
30458;SDS011;17254;50.976;7.034;2023-05-10T00:34:45;21.30;;;13.13;;
30458;SDS011;17254;50.976;7.034;2023-05-10T00:34:51;21.20;;;13.10;;
30458;SDS011;17254;50.976;7.034;2023-05-10T00:34:57;21.30;;;13.02;;
30458;SDS011;17254;50.976;7.034;2023-05-10T00:35:03;21.17;;;12.57;;
30458;SDS011;17254;50.976;7.034;2023-05-10T00:35:10;21.15;;;12.55;;
30458;SDS011;17254;50.976;7.034;2023-05-10T00:35:16;21.75;;;12.68;;
30458;SDS011;17254;50.976;7.034;2023-05-10T00:35:22;21.70;;;12.85;;
30458;SDS011;17254;50.976;7.034;2023-05-10T00:35:29;22.03;;;12.77;;
30458;SDS011;17254;50.976;7.034;2023-05-10T00:35:35;21.77;;;12.95;;
30458;SDS011;17254;50.976;7.034;2023-05-10T00:35:41;22.43;;;13.23;;
30458;SDS011;17254;50.976;7.034;2023-05-10T00:35:48;22.53;;;12.90;;
30458;SDS011;17254;50.976;7.034;2023-05-10T00:35:54;22.40;;;12.88;;
30458;SDS011;17254;50.976;7.034;2023-05-10T00:36:00;22.00;;;13.05;;
30458;SDS011;17254;50.976;7.034;2023-05-10T00:36:06;22.02;;;12.95;;
30458;SDS011;17254;50.976;7.034;2023-05-10T00:36:12;21.27;;;12.97;;